Time;durP1;ratioP1;P1;durP2;ratioP2;P2;SDS_P1;SDS_P2;PMS_P1;PMS_P2;Temp;Humidity;BMP_temperature;BMP_pressure;BME280_temperature;BME280_humidity;BME280_pressure;Samples;Min_cycle;Max_cycle;Signal;HPM_P1;HPM_P2
2021/07/18 00:02:04;;;;;;;18.10;11.10;;;;;;;23.61;65.49;98928.05;1782395;80;20930;-41
2021/07/18 00:04:30;;;;;;;16.45;11.40;;;;;;;23.93;65.66;98974.38;1782487;80;21006;-41
2021/07/18 00:06:59;;;;;;;12.30;10.85;;;;;;;23.93;65.27;98974.38;1782541;80;20953;-41
2021/07/18 00:09:26;;;;;;;15.38;11.85;;;;;;;23.89;65.26;98977.31;1782337;80;21126;-40
2021/07/18 00:11:53;;;;;;;14.53;11.57;;;;;;;23.85;65.02;98975.91;1782478;80;21025;-40
2021/07/18 00:14:20;;;;;;;16.93;12.50;;;;;;;23.76;65.08;98980.21;1782567;80;21542;-40
2021/07/18 00:16:48;;;;;;;16.62;13.00;;;;;;;23.69;65.19;98988.79;1782384;80;21484;-40
2021/07/18 00:19:15;;;;;;;16.12;13.20;;;;;;;23.59;65.55;98981.68;1782675;80;21554;-40
2021/07/18 00:21:41;;;;;;;16.93;13.25;;;;;;;23.55;65.59;98974.75;1782458;80;21530;-40
2021/07/18 00:24:08;;;;;;;21.70;13.53;;;;;;;23.54;65.62;98981.50;1782374;80;21547;-40
2021/07/18 00:26:34;;;;;;;17.70;13.20;;;;;;;23.50;65.61;98978.89;1782417;80;21515;-40
2021/07/18 00:29:01;;;;;;;19.55;13.60;;;;;;;23.49;65.61;98982.88;1782572;80;21569;-40
2021/07/18 00:31:29;;;;;;;18.45;13.08;;;;;;;23.47;65.62;98988.11;1782565;80;21032;-40
2021/07/18 00:33:55;;;;;;;17.82;12.65;;;;;;;23.46;65.63;98986.56;1782445;80;21124;-40
2021/07/18 00:36:22;;;;;;;19.73;12.85;;;;;;;23.43;65.82;98990.19;1782322;80;21011;-40
2021/07/18 00:38:49;;;;;;;19.57;13.53;;;;;;;23.43;65.82;98991.58;1782415;80;21019;-40
2021/07/18 00:41:15;;;;;;;14.83;13.13;;;;;;;23.44;65.87;98982.66;1782601;80;21020;-40
2021/07/18 00:43:42;;;;;;;20.52;12.85;;;;;;;23.43;65.90;98983.27;1782513;80;21064;-40
2021/07/18 00:46:10;;;;;;;18.92;13.55;;;;;;;23.37;65.85;98982.35;1782413;80;21889;-41
2021/07/18 00:48:37;;;;;;;15.83;12.50;;;;;;;23.35;65.92;98969.58;1749558;80;21004;-40
2021/07/18 00:51:04;;;;;;;19.37;14.05;;;;;;;23.31;65.97;98973.09;1782318;80;21004;-40
2021/07/18 00:53:30;;;;;;;20.68;13.65;;;;;;;23.26;66.05;98971.70;1782363;80;20926;-40
2021/07/18 00:55:58;;;;;;;16.95;13.65;;;;;;;23.24;66.25;98971.97;1782248;80;21053;-41
2021/07/18 00:58:28;;;;;;;23.05;13.78;;;;;;;23.21;66.36;98976.44;1782375;80;21148;-40
2021/07/18 01:00:55;;;;;;;21.97;14.53;;;;;;;23.16;66.61;98968.72;1782402;80;21016;-40
2021/07/18 01:03:22;;;;;;;20.23;14.35;;;;;;;23.13;66.85;98961.95;1782485;80;21865;-41
2021/07/18 01:05:49;;;;;;;17.95;14.75;;;;;;;23.10;67.14;98958.09;1782437;80;21551;-40
2021/07/18 01:08:16;;;;;;;21.80;14.40;;;;;;;23.10;67.37;98958.09;1782538;80;21616;-40
2021/07/18 01:10:45;;;;;;;19.55;13.80;;;;;;;23.15;67.46;98958.11;1782515;80;21000;-41
2021/07/18 01:13:11;;;;;;;20.52;14.33;;;;;;;23.18;67.47;98959.98;1782299;80;20989;-40
2021/07/18 01:15:38;;;;;;;17.48;13.60;;;;;;;23.15;67.33;98963.03;1782453;80;20996;-40
2021/07/18 01:18:09;;;;;;;17.15;13.85;;;;;;;23.14;67.40;98960.73;1782632;80;20982;-41
2021/07/18 01:20:36;;;;;;;21.87;14.28;;;;;;;23.15;67.26;98955.34;1782500;80;20985;-40
2021/07/18 01:23:03;;;;;;;21.15;14.40;;;;;;;23.14;67.10;98952.44;1782601;80;21136;-40
2021/07/18 01:25:30;;;;;;;18.80;14.50;;;;;;;23.10;67.13;98949.80;1782461;80;20998;-40
2021/07/18 01:27:57;;;;;;;18.40;14.80;;;;;;;23.10;67.00;98947.03;1754033;80;20996;-40
2021/07/18 01:30:24;;;;;;;21.25;15.25;;;;;;;23.07;67.11;98946.56;1782546;80;21004;-40
2021/07/18 01:32:50;;;;;;;20.08;13.62;;;;;;;23.07;67.20;98948.55;1749320;80;21045;-41
2021/07/18 01:35:17;;;;;;;22.82;15.18;;;;;;;23.08;67.23;98948.72;1782440;80;21141;-40
2021/07/18 01:37:44;;;;;;;21.33;14.35;;;;;;;23.08;67.28;98943.19;1782983;80;20972;-40
2021/07/18 01:40:11;;;;;;;19.07;14.70;;;;;;;23.01;67.46;98948.98;1782679;80;21025;-40
2021/07/18 01:42:40;;;;;;;21.93;15.00;;;;;;;22.95;67.70;98948.79;1754251;80;21479;-40
2021/07/18 01:45:09;;;;;;;22.98;15.50;;;;;;;22.90;67.88;98946.00;1782534;80;21028;-40
2021/07/18 01:47:36;;;;;;;21.25;15.55;;;;;;;22.88;68.01;98940.17;1782986;80;21725;-40
2021/07/18 01:50:06;;;;;;;20.48;14.68;;;;;;;22.89;68.15;98934.81;1782568;80;21089;-40
2021/07/18 01:52:33;;;;;;;22.10;15.38;;;;;;;22.90;68.14;98939.09;1782825;80;20980;-40
2021/07/18 01:55:00;;;;;;;23.90;14.35;;;;;;;22.91;68.22;98943.41;1782402;80;21057;-40
2021/07/18 01:57:27;;;;;;;20.92;14.47;;;;;;;22.91;68.20;98933.73;1774547;80;20990;-40
2021/07/18 01:59:54;;;;;;;24.37;15.15;;;;;;;22.94;68.16;98932.84;1774062;80;21091;-40
2021/07/18 02:02:20;;;;;;;20.30;14.40;;;;;;;22.96;68.11;98929.60;1774129;80;21029;-40
2021/07/18 02:04:48;;;;;;;20.20;14.13;;;;;;;22.99;68.21;98927.94;1774032;80;20930;-40
2021/07/18 02:07:16;;;;;;;21.27;12.98;;;;;;;23.04;68.18;98927.35;1774192;80;20989;-40
2021/07/18 02:09:43;;;;;;;22.25;12.68;;;;;;;23.11;67.90;98925.68;1773985;80;21543;-40
2021/07/18 02:12:11;;;;;;;24.05;12.55;;;;;;;23.18;67.42;98926.80;1773977;80;21129;-40
2021/07/18 02:14:39;;;;;;;19.23;12.55;;;;;;;23.24;67.14;98916.66;1773994;80;21026;-40
2021/07/18 02:17:06;;;;;;;26.33;13.43;;;;;;;23.32;67.13;98924.24;1774118;80;20985;-40
2021/07/18 02:19:32;;;;;;;23.62;12.73;;;;;;;23.39;66.88;98928.09;1774027;80;21057;-40
2021/07/18 02:21:59;;;;;;;19.17;13.75;;;;;;;23.42;66.43;98929.19;1773976;80;21013;-40
2021/07/18 02:24:26;;;;;;;20.30;14.25;;;;;;;23.41;66.24;98931.80;1773918;80;21120;-40
2021/07/18 02:26:54;;;;;;;20.05;15.00;;;;;;;23.38;66.18;98925.16;1773941;80;21657;-40
2021/07/18 02:29:22;;;;;;;19.50;14.47;;;;;;;23.39;66.28;98923.17;1773956;80;20921;-40
2021/07/18 02:31:52;;;;;;;19.45;14.35;;;;;;;23.40;66.20;98921.95;1773872;80;21080;-40
2021/07/18 02:34:18;;;;;;;19.40;15.00;;;;;;;23.42;66.21;98917.35;1774312;80;21378;-41
2021/07/18 02:36:45;;;;;;;20.05;14.13;;;;;;;23.42;66.42;98915.97;1774057;80;21139;-40
2021/07/18 02:39:13;;;;;;;21.12;13.20;;;;;;;23.44;66.56;98930.09;1773805;80;20926;-40
2021/07/18 02:41:39;;;;;;;23.85;13.18;;;;;;;23.48;66.59;98921.09;1773930;80;21005;-40
2021/07/18 02:44:07;;;;;;;24.55;12.05;;;;;;;23.52;66.61;98917.56;1773947;80;21826;-40
2021/07/18 02:46:35;;;;;;;22.70;12.73;;;;;;;23.56;66.53;98916.19;1773809;80;21073;-40
2021/07/18 02:49:03;;;;;;;26.35;12.47;;;;;;;23.62;66.35;98912.98;1774017;80;21113;-40
2021/07/18 02:51:30;;;;;;;21.68;11.38;;;;;;;23.68;65.91;98916.66;1773761;80;21013;-40
2021/07/18 02:53:57;;;;;;;20.10;11.90;;;;;;;23.73;65.35;98907.76;1773760;80;21009;-40
2021/07/18 02:56:24;;;;;;;20.88;11.83;;;;;;;23.76;64.63;98908.24;1773761;80;21021;-41
2021/07/18 02:58:51;;;;;;;21.48;12.03;;;;;;;23.79;64.39;98904.55;1774029;80;21076;-40
2021/07/18 03:01:19;;;;;;;17.32;11.60;;;;;;;23.83;64.40;98906.55;1773210;80;21151;-40
2021/07/18 03:03:46;;;;;;;19.60;11.78;;;;;;;23.86;64.04;98901.33;1773991;80;20902;-40
2021/07/18 03:06:12;;;;;;;20.10;11.25;;;;;;;23.87;63.98;98908.41;1774118;80;21005;-40
2021/07/18 03:08:40;;;;;;;17.87;11.35;;;;;;;23.90;63.73;98900.56;1773829;80;21193;-41
2021/07/18 03:11:07;;;;;;;17.92;11.50;;;;;;;23.94;63.52;98910.86;1773941;80;21005;-41
2021/07/18 03:13:34;;;;;;;18.52;11.10;;;;;;;23.98;63.47;98904.55;1773927;80;21116;-40
2021/07/18 03:16:01;;;;;;;25.12;11.48;;;;;;;24.00;63.26;98892.41;1773733;80;21079;-40
2021/07/18 03:18:29;;;;;;;18.17;11.10;;;;;;;24.04;63.15;98895.18;1773923;80;21076;-40
2021/07/18 03:20:56;;;;;;;16.77;10.93;;;;;;;24.08;63.04;98891.64;1773868;80;20977;-40
2021/07/18 03:23:23;;;;;;;20.08;11.55;;;;;;;24.16;62.84;98900.39;1773988;80;21084;-40
2021/07/18 03:25:49;;;;;;;20.23;11.22;;;;;;;24.19;62.77;98906.44;1773980;80;21141;-40
2021/07/18 03:28:16;;;;;;;24.90;11.50;;;;;;;24.23;62.66;98909.82;1773794;80;21753;-41
2021/07/18 03:30:43;;;;;;;21.80;11.18;;;;;;;24.28;62.63;98910.59;1774029;80;21503;-40
2021/07/18 03:33:10;;;;;;;22.82;12.03;;;;;;;24.33;62.59;98918.89;1773782;80;20973;-41
2021/07/18 03:35:37;;;;;;;20.88;12.10;;;;;;;24.33;62.46;98914.13;1773796;80;21080;-40
2021/07/18 03:38:04;;;;;;;22.67;10.40;;;;;;;24.38;62.54;98921.05;1773803;80;21139;-41
2021/07/18 03:40:30;;;;;;;19.65;10.15;;;;;;;24.43;62.90;98921.20;1773865;80;20980;-41
2021/07/18 03:42:58;;;;;;;21.37;10.55;;;;;;;24.51;62.92;98926.57;1773893;80;21547;-40
2021/07/18 03:45:24;;;;;;;21.90;10.95;;;;;;;24.59;62.98;98922.23;1773854;80;21036;-40
2021/07/18 03:47:52;;;;;;;22.35;11.40;;;;;;;24.64;63.25;98927.16;1773935;80;21088;-41
2021/07/18 03:50:19;;;;;;;19.00;11.80;;;;;;;24.67;63.11;98935.95;1773770;80;22327;-41
2021/07/18 03:52:47;;;;;;;19.48;12.60;;;;;;;24.69;63.60;98934.08;1773986;80;20894;-40
2021/07/18 03:55:14;;;;;;;20.40;13.70;;;;;;;24.64;63.44;98932.70;1773785;80;21864;-40
2021/07/18 03:57:42;;;;;;;20.65;13.65;;;;;;;24.64;63.61;98927.80;1779918;80;21024;-40
2021/07/18 04:00:10;;;;;;;21.60;13.48;;;;;;;24.65;63.99;98934.24;1782026;80;21021;-40
2021/07/18 04:02:37;;;;;;;19.52;13.88;;;;;;;24.67;63.82;98933.79;1782384;80;21060;-40
2021/07/18 04:05:04;;;;;;;24.32;15.03;;;;;;;24.65;63.93;98937.02;1782177;80;21017;-41
2021/07/18 04:07:32;;;;;;;24.65;15.32;;;;;;;24.65;64.05;98933.47;1782293;80;20962;-41
2021/07/18 04:10:01;;;;;;;20.75;14.43;;;;;;;24.64;63.89;98938.89;1781954;80;21073;-41
2021/07/18 04:12:27;;;;;;;19.05;12.98;;;;;;;24.64;63.94;98934.73;1782401;80;21029;-40
2021/07/18 04:14:55;;;;;;;17.60;12.65;;;;;;;24.68;64.11;98935.33;1782215;80;21899;-41
2021/07/18 04:17:21;;;;;;;21.85;14.15;;;;;;;24.76;63.89;98944.08;1782213;80;21536;-40
2021/07/18 04:19:48;;;;;;;20.20;13.75;;;;;;;24.78;63.92;98946.56;1782362;80;21016;-40
2021/07/18 04:22:15;;;;;;;21.35;13.32;;;;;;;24.78;63.72;98943.78;1782062;80;21004;-40
2021/07/18 04:24:41;;;;;;;20.37;13.58;;;;;;;24.77;63.86;98945.62;1782249;80;21021;-40
2021/07/18 04:27:08;;;;;;;21.73;13.55;;;;;;;24.81;63.88;98944.23;1782102;80;21191;-41
2021/07/18 04:29:35;;;;;;;20.70;12.45;;;;;;;24.87;64.05;98940.25;1782022;80;20965;-41
2021/07/18 04:32:02;;;;;;;21.45;12.15;;;;;;;24.95;63.89;98935.90;1782263;80;20953;-40
2021/07/18 04:34:28;;;;;;;21.60;12.75;;;;;;;25.04;63.82;98933.09;1782256;80;21068;-41
2021/07/18 04:36:55;;;;;;;17.70;11.38;;;;;;;25.14;63.82;98931.83;1782660;80;21048;-41
2021/07/18 04:39:22;;;;;;;20.62;12.35;;;;;;;25.24;63.80;98930.55;1782047;80;21063;-40
2021/07/18 04:41:49;;;;;;;22.98;11.90;;;;;;;25.30;63.20;98937.02;1782355;80;21510;-41
2021/07/18 04:44:15;;;;;;;25.30;12.10;;;;;;;25.40;62.55;98937.73;1782050;80;21535;-40
2021/07/18 04:46:43;;;;;;;21.17;12.13;;;;;;;25.47;62.23;98932.59;1782024;80;21032;-41
2021/07/18 04:49:10;;;;;;;24.55;11.65;;;;;;;25.55;62.14;98928.13;1782167;80;21005;-40
2021/07/18 04:51:37;;;;;;;21.33;11.10;;;;;;;25.61;62.15;98925.61;1782226;80;21140;-41
2021/07/18 04:54:04;;;;;;;23.05;12.20;;;;;;;25.70;62.28;98930.36;1782079;80;21566;-40
2021/07/18 04:56:30;;;;;;;18.65;11.33;;;;;;;25.76;61.92;98922.90;1782134;80;21399;-41
2021/07/18 04:58:57;;;;;;;24.65;11.60;;;;;;;25.84;61.67;98921.32;1782130;80;21060;-40
2021/07/18 05:01:24;;;;;;;22.62;11.80;;;;;;;25.93;61.81;98922.64;1782086;80;21080;-41
2021/07/18 05:03:51;;;;;;;28.32;13.45;;;;;;;26.01;61.58;98926.59;1782288;80;21098;-40
2021/07/18 05:06:18;;;;;;;21.50;11.88;;;;;;;26.08;61.35;98926.23;1781949;80;21557;-40
2021/07/18 05:08:44;;;;;;;20.23;11.38;;;;;;;26.17;61.30;98923.38;1782270;80;21534;-41
2021/07/18 05:12:17;;;;;;;22.40;12.28;;;;;;;26.35;61.52;98928.03;1796965;79;22650;-40
2021/07/18 05:14:45;;;;;;;25.77;13.08;;;;;;;26.33;61.47;98928.53;1756997;81;20960;-40
2021/07/18 05:17:13;;;;;;;25.15;12.90;;;;;;;26.36;61.54;98923.41;1757038;81;21139;-40
2021/07/18 05:19:40;;;;;;;20.70;12.65;;;;;;;26.41;61.24;98926.75;1757005;81;20976;-41
2021/07/18 05:22:08;;;;;;;23.50;12.25;;;;;;;26.47;61.12;98924.85;1756888;81;21005;-41
2021/07/18 05:24:35;;;;;;;24.37;12.53;;;;;;;26.56;61.16;98928.31;1756931;81;20965;-40
2021/07/18 05:27:03;;;;;;;21.42;12.47;;;;;;;26.64;61.07;98929.46;1757065;81;20988;-40
2021/07/18 05:29:29;;;;;;;23.80;12.53;;;;;;;26.72;61.19;98932.00;1757040;81;21939;-41
2021/07/18 05:31:56;;;;;;;21.27;12.95;;;;;;;26.81;61.37;98928.38;1756882;81;21016;-41
2021/07/18 05:34:23;;;;;;;25.25;13.65;;;;;;;26.92;61.02;98935.52;1757023;81;21008;-41
2021/07/18 05:36:49;;;;;;;21.90;13.13;;;;;;;27.01;60.72;98934.67;1756858;81;21563;-41
2021/07/18 05:39:17;;;;;;;24.30;13.88;;;;;;;27.07;60.79;98933.50;1756800;81;21079;-41
2021/07/18 05:41:44;;;;;;;21.70;13.28;;;;;;;27.17;60.89;98932.77;1756899;81;21135;-41
2021/07/18 05:44:11;;;;;;;30.40;14.78;;;;;;;27.22;60.50;98933.48;1757037;81;20996;-40
2021/07/18 05:46:38;;;;;;;20.20;14.13;;;;;;;27.29;60.04;98932.33;1756943;81;21071;-41
2021/07/18 05:49:05;;;;;;;28.02;14.40;;;;;;;27.36;59.91;98935.47;1756847;81;21017;-40
2021/07/18 05:51:31;;;;;;;22.17;15.03;;;;;;;27.39;59.97;98936.53;1754607;81;20993;-41
2021/07/18 05:53:58;;;;;;;20.27;15.75;;;;;;;27.43;60.06;98945.44;1748755;82;21157;-41
2021/07/18 05:56:25;;;;;;;22.10;14.83;;;;;;;27.47;59.69;98955.75;1748386;82;20922;-40
2021/07/18 05:58:51;;;;;;;27.75;15.00;;;;;;;27.52;59.86;98955.09;1748721;82;21464;-41
2021/07/18 06:01:18;;;;;;;25.37;14.50;;;;;;;27.59;59.68;98958.88;1748623;82;21096;-41
2021/07/18 06:03:45;;;;;;;24.18;14.30;;;;;;;27.62;59.63;98957.90;1748669;82;21065;-41
2021/07/18 06:06:11;;;;;;;20.23;14.25;;;;;;;27.63;59.64;98962.23;1748766;82;21125;-40
2021/07/18 06:08:39;;;;;;;23.05;14.70;;;;;;;27.68;59.29;98956.59;1748683;82;21069;-41
2021/07/18 06:11:05;;;;;;;30.20;15.18;;;;;;;27.75;59.84;98955.55;1719037;82;21543;-40
2021/07/18 06:13:32;;;;;;;17.87;13.85;;;;;;;27.83;60.13;98955.91;1714181;83;20907;-41
2021/07/18 06:16:00;;;;;;;24.30;14.35;;;;;;;27.87;59.87;98960.65;1713873;83;21045;-40
2021/07/18 06:18:27;;;;;;;21.55;14.45;;;;;;;27.90;59.38;98968.03;1713894;83;21760;-41
2021/07/18 06:20:54;;;;;;;24.70;14.35;;;;;;;27.95;59.04;98961.14;1714016;83;20977;-41
2021/07/18 06:23:21;;;;;;;23.45;14.55;;;;;;;28.00;59.06;98962.45;1713485;83;21100;-41
2021/07/18 06:25:47;;;;;;;25.15;14.75;;;;;;;28.05;58.67;98959.75;1713431;83;21520;-41
2021/07/18 06:28:14;;;;;;;20.62;14.45;;;;;;;28.14;58.50;98962.27;1713455;83;21014;-41
2021/07/18 06:30:41;;;;;;;20.43;14.55;;;;;;;28.19;58.36;98960.18;1713509;83;21092;-40
2021/07/18 06:33:07;;;;;;;22.73;14.07;;;;;;;28.27;58.67;98958.52;1713411;83;21539;-41
2021/07/18 06:35:35;;;;;;;22.80;14.93;;;;;;;28.34;58.87;98961.64;1713338;83;20956;-41
2021/07/18 06:38:01;;;;;;;22.22;14.43;;;;;;;28.43;59.41;98968.45;1713632;83;20973;-41
2021/07/18 06:40:28;;;;;;;26.73;14.25;;;;;;;28.54;58.97;98970.60;1713168;83;21021;-41
2021/07/18 06:42:54;;;;;;;23.60;14.30;;;;;;;28.66;59.01;98966.66;1713540;83;21079;-41
2021/07/18 06:45:21;;;;;;;18.82;14.53;;;;;;;28.75;58.68;98967.17;1713282;83;20969;-41
2021/07/18 06:47:48;;;;;;;25.85;14.85;;;;;;;28.81;58.05;98968.74;1713682;83;21025;-41
2021/07/18 06:50:14;;;;;;;20.17;14.03;;;;;;;28.87;57.42;98962.59;1713285;83;21002;-41
2021/07/18 06:52:41;;;;;;;22.77;13.75;;;;;;;28.94;57.21;98962.79;1713741;83;21035;-41
2021/07/18 06:55:11;;;;;;;19.98;14.55;;;;;;;29.03;57.91;98959.81;1713133;83;21138;-41
2021/07/18 06:57:38;;;;;;;20.77;13.25;;;;;;;29.10;56.78;98955.80;1713562;83;21522;-41
2021/07/18 07:00:07;;;;;;;22.20;14.13;;;;;;;29.15;55.42;98955.08;1713512;83;20973;-41
2021/07/18 07:02:33;;;;;;;19.15;13.90;;;;;;;29.21;55.57;98958.69;1713534;83;20945;-41
2021/07/18 07:05:00;;;;;;;19.98;14.68;;;;;;;29.28;56.20;98959.64;1713489;83;21057;-41
2021/07/18 07:07:26;;;;;;;17.62;13.62;;;;;;;29.38;56.39;98961.02;1713451;83;21488;-41
2021/07/18 07:09:53;;;;;;;22.13;13.55;;;;;;;29.46;56.19;98963.47;1713142;82;21028;-41
2021/07/18 07:12:19;;;;;;;22.10;13.72;;;;;;;29.51;55.86;98961.35;1707258;83;21586;-41
2021/07/18 07:14:46;;;;;;;21.60;13.70;;;;;;;29.57;55.71;98961.39;1705444;84;21081;-41
2021/07/18 07:17:13;;;;;;;16.50;13.28;;;;;;;29.62;54.84;98953.67;1705508;84;21030;-41
2021/07/18 07:19:39;;;;;;;18.35;13.03;;;;;;;29.67;54.61;98959.30;1705885;84;21135;-41
2021/07/18 07:22:06;;;;;;;18.85;13.65;;;;;;;29.74;54.79;98967.20;1699772;84;20973;-41
2021/07/18 07:24:33;;;;;;;18.35;12.75;;;;;;;29.83;54.46;98966.85;1705332;84;21021;-41
2021/07/18 07:26:59;;;;;;;17.00;13.88;;;;;;;29.91;53.63;98964.54;1705668;84;21089;-41
2021/07/18 07:29:25;;;;;;;18.60;11.65;;;;;;;29.98;53.45;98964.67;1705654;84;21026;-41
2021/07/18 07:31:53;;;;;;;16.85;11.83;;;;;;;30.00;53.61;98974.11;1705440;84;21239;-41
2021/07/18 07:34:19;;;;;;;19.23;12.03;;;;;;;30.07;52.33;98968.66;1705308;84;20994;-41
2021/07/18 07:36:47;;;;;;;15.93;11.95;;;;;;;30.12;52.83;98970.71;1705604;84;21580;-41
2021/07/18 07:39:14;;;;;;;14.38;11.50;;;;;;;30.17;53.94;98965.78;1705534;84;20894;-41
2021/07/18 07:41:40;;;;;;;15.15;11.60;;;;;;;30.25;54.08;98965.44;1705825;84;21512;-41
2021/07/18 07:44:07;;;;;;;16.37;11.50;;;;;;;30.36;52.24;98966.86;1705544;84;21093;-41
2021/07/18 07:46:34;;;;;;;16.65;12.15;;;;;;;30.44;51.71;98960.92;1705629;84;20981;-41
2021/07/18 07:49:00;;;;;;;18.02;13.00;;;;;;;30.50;52.14;98961.71;1705627;84;21041;-41
2021/07/18 07:51:27;;;;;;;16.05;12.30;;;;;;;30.61;52.91;98964.55;1705376;84;20970;-41
2021/07/18 07:53:54;;;;;;;17.80;13.15;;;;;;;30.72;53.03;98968.00;1705521;84;21105;-41
2021/07/18 07:56:20;;;;;;;19.42;12.00;;;;;;;30.83;52.26;98963.06;1705684;84;21087;-41
2021/07/18 07:58:47;;;;;;;14.63;11.80;;;;;;;30.91;51.59;98961.28;1705418;84;21472;-41
2021/07/18 08:01:15;;;;;;;16.85;12.25;;;;;;;30.99;51.53;98963.69;1705449;84;21069;-41
2021/07/18 08:03:41;;;;;;;17.55;12.90;;;;;;;31.08;52.08;98966.30;1705745;84;21021;-41
2021/07/18 08:06:08;;;;;;;19.55;12.78;;;;;;;31.16;51.48;98960.94;1705662;84;21551;-41
2021/07/18 08:08:35;;;;;;;17.17;11.65;;;;;;;31.25;50.89;98953.67;1705528;84;21137;-41
2021/07/18 08:11:02;;;;;;;14.38;11.57;;;;;;;31.29;49.99;98958.38;1706003;82;21515;-42
2021/07/18 08:13:29;;;;;;;14.90;11.60;;;;;;;31.34;49.99;98955.58;1713214;83;21065;-41
2021/07/18 08:15:55;;;;;;;15.85;11.25;;;;;;;31.43;50.34;98949.70;1713324;83;21013;-41
2021/07/18 08:18:22;;;;;;;14.05;11.68;;;;;;;31.56;50.27;98952.02;1713414;83;20941;-41
2021/07/18 08:20:49;;;;;;;15.88;11.60;;;;;;;31.68;49.33;98957.71;1713318;83;21134;-41
2021/07/18 08:23:15;;;;;;;16.75;12.00;;;;;;;31.78;48.40;98959.59;1713229;83;20984;-41
2021/07/18 08:25:42;;;;;;;18.85;11.63;;;;;;;31.85;47.95;98956.27;1713514;83;21092;-41
2021/07/18 08:28:09;;;;;;;14.03;10.68;;;;;;;31.91;47.88;98958.40;1713308;83;20948;-41
2021/07/18 08:30:36;;;;;;;14.15;10.38;;;;;;;31.98;48.04;98950.10;1713468;83;20990;-41
2021/07/18 08:33:04;;;;;;;13.95;11.00;;;;;;;32.09;46.66;98950.83;1713296;83;21522;-41
2021/07/18 08:35:31;;;;;;;12.05;9.65;;;;;;;32.20;46.78;98949.39;1713374;83;21398;-41
2021/07/18 08:37:57;;;;;;;14.25;10.43;;;;;;;32.28;45.93;98953.83;1713361;83;21012;-41
2021/07/18 08:40:24;;;;;;;14.78;10.65;;;;;;;32.33;46.08;98949.59;1713191;83;21095;-41
2021/07/18 08:42:51;;;;;;;13.43;9.75;;;;;;;32.43;45.59;98947.25;1713379;83;21092;-41
2021/07/18 08:45:17;;;;;;;14.90;9.80;;;;;;;32.60;45.67;98945.73;1713269;83;21836;-41
2021/07/18 08:47:44;;;;;;;15.45;10.23;;;;;;;32.78;45.14;98947.28;1713266;83;20949;-41
2021/07/18 08:50:13;;;;;;;12.45;9.63;;;;;;;32.99;44.53;98942.03;1713400;83;21029;-41
2021/07/18 08:52:40;;;;;;;13.62;9.18;;;;;;;33.14;44.17;98942.41;1713440;83;20961;-41
2021/07/18 08:55:08;;;;;;;15.32;10.43;;;;;;;33.23;43.62;98932.91;1713353;83;21029;-41
2021/07/18 08:57:34;;;;;;;11.83;9.30;;;;;;;33.35;44.21;98944.17;1713345;83;21185;-42
2021/07/18 09:00:03;;;;;;;12.90;9.70;;;;;;;33.40;43.53;98942.59;1713240;83;21583;-41
2021/07/18 09:02:29;;;;;;;11.10;10.00;;;;;;;33.30;43.38;98940.02;1713233;83;21034;-41
2021/07/18 09:04:56;;;;;;;15.63;10.18;;;;;;;33.15;43.86;98935.55;1685479;83;20934;-41
2021/07/18 09:07:23;;;;;;;11.25;10.00;;;;;;;33.05;43.54;98932.92;1713411;83;21064;-41
2021/07/18 09:09:53;;;;;;;14.85;9.38;;;;;;;33.01;44.10;98931.05;1725333;82;21099;-41
2021/07/18 09:12:20;;;;;;;11.33;9.58;;;;;;;33.03;44.14;98931.27;1705647;83;21045;-41
2021/07/18 09:14:48;;;;;;;13.10;9.48;;;;;;;33.15;44.31;98929.92;1726604;83;21019;-41
2021/07/18 09:17:18;;;;;;;17.10;13.40;;;;;;;33.37;43.09;98927.53;1726477;83;21000;-41
2021/07/18 09:19:47;;;;;;;12.90;9.85;;;;;;;33.58;42.63;98934.23;1726520;83;21083;-41
2021/07/18 09:22:22;;;;;;;11.78;8.88;;;;;;;33.74;40.64;98936.77;1726602;83;21129;-41
2021/07/18 09:25:00;;;;;;;11.38;8.95;;;;;;;33.81;40.59;98936.16;1725130;83;20973;-41
2021/07/18 09:27:33;;;;;;;15.35;9.98;;;;;;;33.78;40.49;98932.25;1726579;83;21081;-41
2021/07/18 09:30:19;;;;;;;11.80;8.93;;;;;;;33.78;40.42;98934.42;1726650;83;21105;-41
2021/07/18 09:32:47;;;;;;;14.20;8.13;;;;;;;33.83;40.51;98927.21;1726589;83;21020;-41
2021/07/18 09:35:16;;;;;;;9.10;8.18;;;;;;;33.93;39.93;98929.13;1726656;83;21104;-41
2021/07/18 09:37:47;;;;;;;12.20;8.25;;;;;;;34.10;38.83;98927.50;1726246;83;20956;-41
2021/07/18 09:40:20;;;;;;;11.78;8.68;;;;;;;34.26;38.01;98924.38;1725890;83;21230;-41
2021/07/18 09:42:52;;;;;;;10.50;7.75;;;;;;;34.40;38.23;98928.79;1725978;83;21009;-42
2021/07/18 09:45:24;;;;;;;11.88;8.15;;;;;;;34.56;37.95;98922.81;1726567;83;21040;-42
2021/07/18 09:48:04;;;;;;;10.55;8.55;;;;;;;34.69;37.58;98920.84;1726389;83;21802;-42
2021/07/18 09:50:35;;;;;;;13.13;9.00;;;;;;;34.80;37.82;98923.48;1726362;83;21024;-42
2021/07/18 09:53:20;;;;;;;10.30;8.93;;;;;;;34.76;38.57;98925.83;1725378;83;21057;-41
2021/07/18 09:56:00;;;;;;;12.45;8.98;;;;;;;34.75;38.98;98927.15;1726584;83;21082;-41
2021/07/18 09:58:28;;;;;;;13.90;9.03;;;;;;;34.75;39.27;98929.20;1726496;83;21056;-41
2021/07/18 10:00:56;;;;;;;14.40;9.13;;;;;;;34.79;39.53;98929.00;1726754;83;21104;-41
2021/07/18 10:03:24;;;;;;;11.40;8.55;;;;;;;34.87;40.26;98931.30;1726462;83;21089;-41
2021/07/18 10:06:11;;;;;;;13.80;9.20;;;;;;;34.88;39.90;98925.78;1699949;83;20949;-41
2021/07/18 10:08:41;;;;;;;11.25;9.30;;;;;;;34.92;39.96;98924.70;1726630;83;21031;-42
2021/07/18 10:11:10;;;;;;;11.12;9.20;;;;;;;35.04;40.13;98923.23;1725725;81;21047;-42
2021/07/18 10:13:39;;;;;;;17.48;10.25;;;;;;;35.12;39.80;98926.27;1715097;83;21028;-42
2021/07/18 10:16:06;;;;;;;14.13;9.40;;;;;;;35.16;38.28;98917.50;1713357;83;20989;-41
2021/07/18 10:18:36;;;;;;;13.08;9.28;;;;;;;35.12;38.75;98921.28;1713483;83;21524;-42
2021/07/18 10:21:04;;;;;;;13.78;9.83;;;;;;;35.03;38.66;98916.06;1713594;83;21029;-41
2021/07/18 10:23:31;;;;;;;12.75;9.00;;;;;;;34.92;38.80;98916.24;1713546;83;21087;-41
2021/07/18 10:25:58;;;;;;;11.40;9.00;;;;;;;34.82;38.20;98916.66;1713736;83;21129;-42
2021/07/18 10:28:25;;;;;;;14.28;9.20;;;;;;;34.71;38.82;98904.83;1713288;83;21817;-42
2021/07/18 10:31:01;;;;;;;12.37;9.28;;;;;;;34.62;38.95;98905.92;1713495;83;21049;-41
2021/07/18 10:33:27;;;;;;;24.25;10.25;;;;;;;34.48;39.51;98904.36;1712983;83;21045;-41
2021/07/18 10:35:55;;;;;;;15.53;9.33;;;;;;;34.27;39.68;98902.75;1713349;83;20985;-41
2021/07/18 10:38:24;;;;;;;14.70;9.95;;;;;;;34.13;40.56;98901.78;1713356;83;21143;-41
2021/07/18 10:40:55;;;;;;;16.60;9.73;;;;;;;34.07;41.00;98905.30;1713822;83;21029;-41
2021/07/18 10:43:40;;;;;;;15.53;9.93;;;;;;;33.97;41.13;98903.51;1712845;83;20973;-41
2021/07/18 10:46:11;;;;;;;16.17;9.93;;;;;;;33.81;41.38;98910.09;1713451;83;21001;-41
2021/07/18 10:48:52;;;;;;;14.58;9.65;;;;;;;33.66;41.85;98901.30;1713523;83;21006;-41
2021/07/18 10:51:20;;;;;;;15.83;8.70;;;;;;;33.57;41.71;98902.42;1713557;83;21585;-41
2021/07/18 10:53:49;;;;;;;16.12;9.95;;;;;;;33.51;41.91;98909.50;1713256;83;21040;-41
2021/07/18 10:56:20;;;;;;;14.40;8.80;;;;;;;33.46;41.52;98908.91;1713654;83;21017;-41
2021/07/18 10:58:50;;;;;;;13.65;8.68;;;;;;;33.38;40.95;98897.39;1713374;83;21005;-41
2021/07/18 11:01:33;;;;;;;14.25;8.90;;;;;;;33.28;41.57;98887.78;1713714;83;20993;-41
2021/07/18 11:04:00;;;;;;;16.07;9.78;;;;;;;33.18;41.28;98895.80;1712953;83;21110;-41
2021/07/18 11:06:31;;;;;;;11.50;8.40;;;;;;;32.95;40.81;98913.47;1713143;83;20966;-41
2021/07/18 11:09:20;;;;;;;16.77;8.55;;;;;;;32.69;40.05;98908.30;1713392;82;21028;-41
2021/07/18 11:11:51;;;;;;;18.62;9.40;;;;;;;32.45;40.49;98913.03;1713390;83;20997;-41
2021/07/18 11:14:35;;;;;;;;;;;;;;;32.21;42.01;98917.26;1716057;83;21061;-41
2021/07/18 11:17:07;;;;;;;14.35;9.68;;;;;;;32.00;43.74;98910.44;1713382;83;21118;-41
2021/07/18 11:19:45;;;;;;;12.88;9.13;;;;;;;31.62;45.27;98921.92;1713296;83;21567;-41
2021/07/18 11:22:14;;;;;;;17.07;9.35;;;;;;;31.20;46.11;98911.80;1713348;83;21048;-41
2021/07/18 11:24:53;;;;;;;19.23;9.10;;;;;;;30.83;46.93;98930.24;1713472;83;27397;-41